Time;durP1;ratioP1;P1;durP2;ratioP2;P2;SDS_P1;SDS_P2;PMS_P1;PMS_P2;Temp;Humidity;BMP_temperature;BMP_pressure;BME280_temperature;BME280_humidity;BME280_pressure;Samples;Min_cycle;Max_cycle;Signal;HPM_P1;HPM_P2
2024/04/15 00:01:34;;;;;;;6.28;3.03;;;6.20;95.80;;;;;;5455840;26;20007;-74
2024/04/15 00:04:01;;;;;;;4.50;3.35;;;6.10;96.00;;;;;;5451469;26;19995;-73
2024/04/15 00:06:30;;;;;;;7.95;6.40;;;6.00;96.10;;;;;;5450239;26;20010;-73
2024/04/15 00:08:57;;;;;;;10.13;5.20;;;6.00;96.40;;;;;;5454044;26;20009;-73
2024/04/15 00:11:24;;;;;;;4.03;3.60;;;5.90;96.60;;;;;;5482564;26;20068;-73
2024/04/15 00:13:51;;;;;;;10.52;3.05;;;5.90;96.80;;;;;;5422266;26;20002;-73
2024/04/15 00:16:18;;;;;;;4.63;3.97;;;5.80;96.70;;;;;;5451709;26;19999;-73
2024/04/15 00:18:46;;;;;;;4.53;3.50;;;5.80;96.70;;;;;;5453522;26;20013;-74
2024/04/15 00:21:13;;;;;;;6.47;3.75;;;5.80;96.60;;;;;;5451507;26;20056;-74
2024/04/15 00:23:40;;;;;;;5.50;4.75;;;5.70;96.50;;;;;;5451787;26;20007;-74
2024/04/15 00:26:07;;;;;;;6.72;4.70;;;5.60;96.60;;;;;;5452979;26;19999;-73
2024/04/15 00:28:34;;;;;;;9.48;4.07;;;5.50;96.80;;;;;;5453373;26;20078;-73
2024/04/15 00:31:01;;;;;;;7.78;5.22;;;5.50;96.90;;;;;;5452974;26;19998;-73
2024/04/15 00:33:28;;;;;;;6.57;5.00;;;5.50;97.10;;;;;;5453280;26;20034;-74
2024/04/15 00:35:55;;;;;;;4.85;4.30;;;5.40;97.30;;;;;;5451466;26;20336;-74
2024/04/15 00:38:22;;;;;;;9.52;3.45;;;5.40;97.20;;;;;;5451133;26;20002;-74
2024/04/15 00:40:49;;;;;;;7.45;4.47;;;5.40;97.30;;;;;;5451578;26;20361;-74
2024/04/15 00:43:16;;;;;;;4.65;4.25;;;5.40;97.60;;;;;;5451305;26;19995;-74
2024/04/15 00:45:44;;;;;;;5.57;2.47;;;5.40;97.70;;;;;;5482091;26;20006;-74
2024/04/15 00:48:17;;;;;;;3.15;2.65;;;5.40;97.70;;;;;;5452825;26;20035;-74
2024/04/15 00:50:46;;;;;;;8.98;4.18;;;5.30;97.90;;;;;;5451754;26;20429;-74
2024/04/15 00:53:15;;;;;;;6.93;5.60;;;5.40;98.00;;;;;;5452546;26;20006;-74
2024/04/15 00:55:46;;;;;;;8.43;3.67;;;5.30;98.40;;;;;;5421420;26;20473;-74
2024/04/15 00:58:14;;;;;;;8.25;3.90;;;5.30;98.30;;;;;;5452543;26;20324;-73
2024/04/15 01:00:42;;;;;;;4.80;3.28;;;5.30;98.20;;;;;;5450711;26;19999;-73
2024/04/15 01:03:10;;;;;;;4.35;4.05;;;5.30;98.20;;;;;;5452486;26;20007;-74
2024/04/15 01:05:38;;;;;;;6.93;4.10;;;5.30;98.30;;;;;;5452817;26;20359;-74
2024/04/15 01:08:06;;;;;;;6.32;5.30;;;5.20;98.30;;;;;;5450800;26;20056;-74
2024/04/15 01:10:33;;;;;;;8.00;4.47;;;5.20;98.40;;;;;;5450843;26;20003;-74
2024/04/15 01:13:12;;;;;;;5.05;4.65;;;5.10;98.30;;;;;;5480932;26;20112;-74
2024/04/15 01:15:39;;;;;;;8.32;4.53;;;5.10;98.20;;;;;;5452714;26;20476;-74
2024/04/15 01:18:06;;;;;;;4.90;4.40;;;5.10;98.20;;;;;;5450993;26;20448;-73
2024/04/15 01:20:34;;;;;;;4.97;3.78;;;5.00;98.30;;;;;;5450981;26;19994;-73
2024/04/15 01:23:05;;;;;;;6.28;4.55;;;5.00;98.30;;;;;;5481128;26;19998;-73
2024/04/15 01:25:32;;;;;;;11.18;3.70;;;5.00;98.50;;;;;;5452980;26;20332;-73
2024/04/15 01:28:00;;;;;;;7.93;4.53;;;4.90;98.40;;;;;;5452811;26;20010;-74
2024/04/15 01:30:27;;;;;;;5.38;4.88;;;4.90;98.50;;;;;;5452162;26;19995;-74
2024/04/15 01:32:54;;;;;;;9.43;4.13;;;5.00;98.40;;;;;;5450737;26;19998;-73
2024/04/15 01:35:21;;;;;;;5.38;4.80;;;4.80;98.40;;;;;;5451993;26;20010;-73
2024/04/15 01:37:49;;;;;;;4.85;4.18;;;4.70;98.50;;;;;;5480666;26;19998;-73
2024/04/15 01:40:16;;;;;;;5.28;2.33;;;4.70;98.60;;;;;;5451956;26;20437;-73
2024/04/15 01:42:43;;;;;;;5.40;4.03;;;4.70;98.70;;;;;;5452024;26;20013;-74
2024/04/15 01:45:11;;;;;;;6.43;5.13;;;4.70;98.60;;;;;;5451855;26;20010;-73
2024/04/15 01:47:38;;;;;;;9.18;4.05;;;4.70;98.60;;;;;;5420697;26;20332;-73
2024/04/15 01:50:05;;;;;;;5.93;5.47;;;4.60;98.80;;;;;;5450489;26;20448;-73
2024/04/15 01:52:32;;;;;;;7.15;4.05;;;4.60;98.80;;;;;;5451781;26;20313;-73
2024/04/15 01:54:59;;;;;;;5.22;4.80;;;4.70;99.00;;;;;;5450742;26;19999;-73
2024/04/15 01:57:26;;;;;;;6.78;5.25;;;4.60;99.00;;;;;;5420516;26;20009;-74
2024/04/15 01:59:53;;;;;;;5.35;3.97;;;4.50;98.90;;;;;;5450189;26;20006;-73
2024/04/15 02:02:21;;;;;;;5.43;4.95;;;4.50;98.80;;;;;;5449971;26;20013;-73
2024/04/15 02:04:48;;;;;;;6.55;5.03;;;4.50;98.80;;;;;;5450422;26;20006;-74
2024/04/15 02:07:15;;;;;;;9.68;5.30;;;4.40;98.90;;;;;;5450005;26;20006;-74
2024/04/15 02:09:42;;;;;;;9.35;5.43;;;4.40;99.10;;;;;;5451931;26;19995;-73
2024/04/15 02:12:09;;;;;;;5.47;5.03;;;4.40;99.20;;;;;;5453453;26;19999;-73
2024/04/15 02:14:36;;;;;;;4.88;3.33;;;4.40;99.20;;;;;;5454953;26;19999;-74
2024/04/15 02:17:03;;;;;;;7.63;5.35;;;4.40;99.20;;;;;;5453524;26;19999;-74
2024/04/15 02:19:33;;;;;;;8.95;6.57;;;4.40;99.10;;;;;;5453120;26;20013;-74
2024/04/15 02:22:00;;;;;;;7.13;4.05;;;4.40;99.10;;;;;;5453466;26;20340;-73
2024/04/15 02:24:27;;;;;;;5.78;3.95;;;4.30;99.20;;;;;;5483265;26;20075;-74
2024/04/15 02:26:55;;;;;;;6.32;4.45;;;4.40;99.40;;;;;;5453480;26;20418;-73
2024/04/15 02:29:22;;;;;;;10.20;4.00;;;4.40;99.50;;;;;;5454824;26;19998;-74
2024/04/15 02:31:49;;;;;;;4.35;4.07;;;4.30;99.70;;;;;;5455160;26;19999;-74
2024/04/15 02:34:20;;;;;;;5.43;4.93;;;4.40;99.90;;;;;;5453444;26;20023;-73
2024/04/15 02:36:47;;;;;;;4.32;3.85;;;4.40;99.90;;;;;;5455346;26;19994;-74
2024/04/15 02:39:14;;;;;;;8.05;5.13;;;4.40;99.70;;;;;;5453770;26;19995;-74
2024/04/15 02:41:41;;;;;;;5.90;5.05;;;4.50;99.70;;;;;;5452984;26;20006;-74
2024/04/15 02:44:08;;;;;;;5.80;4.45;;;4.50;99.90;;;;;;5455180;26;20067;-74
2024/04/15 02:46:35;;;;;;;6.63;4.95;;;4.50;99.90;;;;;;5454950;26;19995;-74
2024/04/15 02:49:02;;;;;;;9.00;5.88;;;4.60;99.90;;;;;;5483336;26;19999;-74
2024/04/15 02:51:31;;;;;;;6.32;4.90;;;4.60;99.90;;;;;;5454436;26;20440;-74
2024/04/15 02:53:58;;;;;;;4.05;3.85;;;4.70;99.90;;;;;;5423442;26;20016;-74
2024/04/15 02:56:26;;;;;;;7.10;5.38;;;4.80;99.90;;;;;;5454296;26;20397;-74
2024/04/15 02:58:53;;;;;;;7.70;6.53;;;5.00;99.90;;;;;;5454573;26;19998;-74
2024/04/15 03:01:20;;;;;;;6.88;3.13;;;5.10;99.90;;;;;;5454433;26;20056;-74
2024/04/15 03:03:47;;;;;;;5.45;3.67;;;5.20;99.90;;;;;;5455070;26;19999;-74
2024/04/15 03:06:19;;;;;;;8.18;5.43;;;5.40;99.90;;;;;;5494545;26;19999;-74
2024/04/15 03:08:47;;;;;;;5.45;4.57;;;5.60;99.90;;;;;;5488983;26;19998;-74
2024/04/15 03:11:14;;;;;;;6.32;4.47;;;5.80;99.90;;;;;;5488838;26;20074;-73
2024/04/15 03:13:41;;;;;;;5.88;5.45;;;5.90;99.90;;;;;;5488679;26;20005;-74
2024/04/15 03:16:08;;;;;;;14.95;5.75;;;6.00;99.90;;;;;;5489124;26;20066;-74
2024/04/15 03:18:41;;;;;;;4.78;3.92;;;6.20;99.90;;;;;;5489034;26;20059;-74
2024/04/15 03:21:08;;;;;;;4.75;4.22;;;6.30;99.90;;;;;;5490870;26;19994;-74
2024/04/15 03:23:36;;;;;;;3.63;3.30;;;6.50;99.90;;;;;;5458473;26;19994;-74
2024/04/15 03:26:03;;;;;;;4.95;4.63;;;6.60;99.90;;;;;;5489220;26;19994;-74
2024/04/15 03:28:30;;;;;;;7.65;2.75;;;6.70;99.90;;;;;;5490529;26;20397;-74
2024/04/15 03:30:57;;;;;;;3.90;3.70;;;6.70;99.90;;;;;;5488830;26;19998;-73
2024/04/15 03:33:24;;;;;;;5.38;4.88;;;6.80;99.90;;;;;;5488572;26;19998;-74
2024/04/15 03:35:52;;;;;;;4.10;3.20;;;6.90;99.90;;;;;;5490641;26;20013;-74
2024/04/15 03:38:19;;;;;;;6.97;6.47;;;6.90;99.90;;;;;;5490435;26;20009;-73
2024/04/15 03:40:46;;;;;;;6.13;3.50;;;7.00;99.90;;;;;;5488483;26;20024;-73
2024/04/15 03:43:13;;;;;;;4.05;3.85;;;7.10;99.90;;;;;;5488665;26;20602;-73
2024/04/15 03:45:41;;;;;;;5.25;4.05;;;7.10;99.90;;;;;;5519091;26;20026;-74
2024/04/15 03:48:08;;;;;;;2.35;2.25;;;7.10;99.90;;;;;;5488523;26;20372;-74
2024/04/15 03:50:36;;;;;;;3.80;3.33;;;7.20;99.90;;;;;;5488423;26;20005;-74
2024/04/15 03:53:03;;;;;;;4.30;3.90;;;7.20;99.90;;;;;;5490608;26;19994;-74
2024/04/15 03:55:30;;;;;;;7.45;3.88;;;7.20;99.90;;;;;;5488710;26;20472;-73
2024/04/15 03:57:57;;;;;;;3.17;2.83;;;7.30;99.90;;;;;;5490202;26;20013;-74
2024/04/15 04:00:24;;;;;;;5.25;3.28;;;7.30;99.90;;;;;;5488742;26;20066;-73
2024/04/15 04:02:51;;;;;;;10.02;3.13;;;7.30;99.90;;;;;;5488306;26;20392;-74
2024/04/15 04:05:19;;;;;;;5.53;4.97;;;7.20;99.90;;;;;;5488488;26;19998;-74
2024/04/15 04:07:48;;;;;;;4.35;4.03;;;7.20;99.90;;;;;;5489740;26;20002;-74
2024/04/15 04:10:15;;;;;;;8.65;4.18;;;7.20;99.90;;;;;;5518851;26;20006;-74
2024/04/15 04:12:42;;;;;;;6.20;4.65;;;7.20;99.90;;;;;;5489796;26;20026;-74
2024/04/15 04:15:09;;;;;;;8.13;4.72;;;7.20;99.90;;;;;;5488196;26;20017;-74
2024/04/15 04:17:36;;;;;;;8.73;4.10;;;7.30;99.90;;;;;;5489597;26;19998;-74
2024/04/15 04:20:03;;;;;;;4.40;2.78;;;7.30;99.90;;;;;;5488065;26;20174;-74
2024/04/15 04:22:30;;;;;;;4.47;3.88;;;7.30;99.90;;;;;;5518371;26;20014;-73
2024/04/15 04:24:57;;;;;;;7.22;2.67;;;7.40;99.90;;;;;;5489700;26;20009;-74
2024/04/15 04:27:24;;;;;;;6.05;4.20;;;7.40;99.90;;;;;;5489778;26;20062;-74
2024/04/15 04:29:51;;;;;;;1.65;1.63;;;7.50;99.90;;;;;;5487908;26;20006;-74
2024/04/15 04:32:18;;;;;;;5.35;4.18;;;7.40;99.90;;;;;;5489759;26;20006;-73
2024/04/15 04:34:46;;;;;;;3.85;3.25;;;7.50;99.90;;;;;;5517001;26;20021;-74
2024/04/15 04:37:14;;;;;;;8.43;3.83;;;7.40;99.90;;;;;;5489641;26;20048;-74
2024/04/15 04:39:41;;;;;;;3.78;3.03;;;7.40;99.90;;;;;;5518181;26;20013;-74
2024/04/15 04:42:08;;;;;;;13.65;3.15;;;7.50;99.90;;;;;;5489929;26;20432;-74
2024/04/15 04:44:35;;;;;;;3.67;3.15;;;7.50;99.90;;;;;;5489569;26;19994;-74
2024/04/15 04:47:02;;;;;;;3.08;2.85;;;7.50;99.90;;;;;;5489563;26;20075;-74
2024/04/15 04:49:29;;;;;;;2.65;2.35;;;7.50;99.90;;;;;;5487757;26;19994;-74
2024/04/15 04:51:56;;;;;;;2.10;2.00;;;7.50;99.90;;;;;;5487342;26;20384;-74
2024/04/15 04:54:23;;;;;;;6.97;4.65;;;7.40;99.90;;;;;;5489515;26;20039;-74
2024/04/15 04:56:52;;;;;;;4.93;3.05;;;7.40;99.90;;;;;;5518086;26;19998;-74
2024/04/15 04:59:19;;;;;;;3.13;2.72;;;7.40;99.90;;;;;;5489215;26;20002;-74
2024/04/15 05:01:46;;;;;;;5.85;5.38;;;7.40;99.90;;;;;;5464855;26;20006;-74
2024/04/15 05:04:13;;;;;;;3.67;3.47;;;7.40;99.90;;;;;;5451039;26;20003;-74
2024/04/15 05:06:40;;;;;;;5.22;3.30;;;7.30;99.90;;;;;;5450126;26;20318;-74
2024/04/15 05:09:07;;;;;;;5.50;5.03;;;7.30;99.90;;;;;;5450913;26;19999;-74
2024/04/15 05:11:36;;;;;;;5.50;5.10;;;7.30;99.90;;;;;;5452749;26;19998;-74
2024/04/15 05:14:03;;;;;;;4.60;4.40;;;7.20;99.90;;;;;;5451021;26;19999;-74
2024/04/15 05:16:30;;;;;;;6.50;5.93;;;7.30;99.90;;;;;;5452967;26;19999;-74
2024/04/15 05:18:57;;;;;;;3.47;3.17;;;7.20;99.90;;;;;;5421029;26;20448;-73
2024/04/15 05:21:24;;;;;;;3.53;3.25;;;7.20;99.90;;;;;;5451266;26;20067;-74
2024/04/15 05:23:52;;;;;;;7.38;3.88;;;7.20;99.90;;;;;;5421263;26;20343;-74
2024/04/15 05:26:19;;;;;;;6.05;5.50;;;7.20;99.90;;;;;;5452618;26;19994;-74
2024/04/15 05:28:47;;;;;;;7.43;3.53;;;7.20;99.90;;;;;;5450561;26;20007;-74
2024/04/15 05:31:14;;;;;;;5.97;3.63;;;7.20;99.90;;;;;;5452467;26;20447;-74
2024/04/15 05:33:41;;;;;;;4.68;4.15;;;7.20;99.90;;;;;;5450524;26;20394;-74
2024/04/15 05:36:08;;;;;;;9.13;4.22;;;7.20;99.90;;;;;;5452471;26;19995;-74
2024/04/15 05:38:35;;;;;;;6.35;3.78;;;7.30;99.90;;;;;;5420466;26;20324;-74
2024/04/15 05:41:02;;;;;;;4.38;4.05;;;7.20;99.90;;;;;;5452012;26;19998;-74
2024/04/15 05:43:29;;;;;;;3.20;2.78;;;7.20;99.90;;;;;;5450313;26;20397;-74
2024/04/15 05:45:56;;;;;;;6.82;5.05;;;7.20;99.90;;;;;;5451463;26;19999;-74
2024/04/15 05:48:25;;;;;;;4.35;3.95;;;7.20;99.90;;;;;;5454012;26;20424;-74
2024/04/15 05:50:52;;;;;;;3.75;3.38;;;7.20;99.90;;;;;;5453635;26;19999;-74
2024/04/15 05:53:19;;;;;;;6.47;4.03;;;7.40;99.90;;;;;;5423913;26;19999;-74
2024/04/15 05:55:47;;;;;;;4.70;3.92;;;7.30;99.90;;;;;;5453704;26;20071;-74
2024/04/15 05:58:14;;;;;;;5.38;3.40;;;7.40;99.90;;;;;;5455538;26;20075;-74
2024/04/15 06:00:41;;;;;;;6.63;3.65;;;7.40;99.90;;;;;;5456443;26;20167;-74
2024/04/15 06:03:08;;;;;;;4.57;4.15;;;7.60;99.90;;;;;;5463639;26;20076;-74
2024/04/15 06:05:35;;;;;;;3.58;3.28;;;7.80;99.90;;;;;;5422510;26;19999;-74
2024/04/15 06:08:03;;;;;;;5.55;4.82;;;8.00;99.90;;;;;;5453049;26;19999;-74
2024/04/15 06:10:31;;;;;;;8.45;4.82;;;8.30;99.90;;;;;;5455782;26;19995;-74
2024/04/15 06:12:58;;;;;;;3.95;3.63;;;8.70;99.90;;;;;;5453536;26;20079;-74
2024/04/15 06:15:25;;;;;;;6.25;3.22;;;9.10;99.90;;;;;;5455617;26;20006;-74
2024/04/15 06:17:52;;;;;;;5.40;4.38;;;9.50;99.90;;;;;;5455116;26;20011;-74
2024/04/15 06:20:19;;;;;;;11.45;4.32;;;10.00;99.90;;;;;;5453545;26;19999;-75
2024/04/15 06:22:48;;;;;;;5.65;4.10;;;10.60;99.90;;;;;;5423790;26;20024;-75
2024/04/15 06:25:15;;;;;;;8.88;4.03;;;11.00;98.90;;;;;;5453397;26;20356;-75
2024/04/15 06:27:42;;;;;;;4.18;3.72;;;11.20;97.10;;;;;;5423547;26;20075;-74
2024/04/15 06:30:10;;;;;;;4.50;3.95;;;11.20;96.90;;;;;;5453009;26;19995;-74
2024/04/15 06:32:37;;;;;;;7.80;4.35;;;11.20;97.00;;;;;;5455030;26;20444;-74
2024/04/15 06:35:04;;;;;;;8.27;5.00;;;11.00;96.90;;;;;;5483378;26;19999;-74
2024/04/15 06:37:33;;;;;;;4.35;3.85;;;10.80;97.40;;;;;;5454890;26;20044;-74
2024/04/15 06:40:00;;;;;;;4.35;3.50;;;10.70;97.70;;;;;;5454911;26;20003;-74
2024/04/15 06:42:27;;;;;;;5.95;3.70;;;10.50;98.00;;;;;;5483891;26;20075;-74
2024/04/15 06:44:54;;;;;;;7.10;4.50;;;10.40;98.40;;;;;;5454479;26;20059;-74
2024/04/15 06:47:21;;;;;;;9.90;5.75;;;10.20;98.80;;;;;;5423460;26;19999;-74
2024/04/15 06:49:48;;;;;;;6.00;4.18;;;10.10;98.80;;;;;;5453208;26;20066;-74
2024/04/15 06:52:15;;;;;;;4.72;3.42;;;10.30;99.30;;;;;;5454801;26;20324;-74
2024/04/15 06:54:47;;;;;;;6.30;4.28;;;10.60;99.10;;;;;;5454789;26;20009;-74
2024/04/15 06:57:14;;;;;;;5.97;4.32;;;11.30;98.10;;;;;;5422112;26;20079;-74
2024/04/15 06:59:41;;;;;;;12.30;4.22;;;11.80;96.70;;;;;;5454724;26;20064;-74
2024/04/15 07:02:10;;;;;;;3.83;3.40;;;12.20;96.60;;;;;;5452686;26;20063;-74
2024/04/15 07:04:38;;;;;;;4.45;3.92;;;12.10;95.40;;;;;;5454338;26;20030;-74
2024/04/15 07:07:05;;;;;;;4.78;4.22;;;12.00;95.20;;;;;;5452446;26;20010;-74
2024/04/15 07:09:32;;;;;;;12.82;4.47;;;11.70;95.40;;;;;;5454506;26;19999;-74
2024/04/15 07:11:59;;;;;;;4.43;4.07;;;11.80;95.80;;;;;;5454063;26;19998;-74
2024/04/15 07:14:27;;;;;;;6.35;4.15;;;11.90;95.40;;;;;;5454391;26;20009;-74
2024/04/15 07:16:54;;;;;;;6.88;3.72;;;11.70;95.40;;;;;;5422690;26;20011;-74
2024/04/15 07:19:21;;;;;;;5.82;5.00;;;11.60;95.50;;;;;;5454494;26;20003;-74
2024/04/15 07:21:49;;;;;;;6.45;3.72;;;11.40;95.30;;;;;;5453062;26;20070;-74
2024/04/15 07:24:16;;;;;;;7.35;4.25;;;11.20;95.60;;;;;;5454047;26;19995;-74
2024/04/15 07:26:43;;;;;;;6.28;4.03;;;11.00;95.90;;;;;;5452459;26;19998;-73
2024/04/15 07:29:10;;;;;;;7.03;4.00;;;10.90;96.00;;;;;;5422068;26;20097;-73
2024/04/15 07:31:39;;;;;;;7.07;4.50;;;10.80;96.30;;;;;;5453201;26;19995;-74
2024/04/15 07:34:06;;;;;;;6.53;4.90;;;10.80;95.90;;;;;;5453776;26;19995;-74
2024/04/15 07:36:33;;;;;;;4.53;4.00;;;10.80;95.90;;;;;;5452378;26;20013;-74
2024/04/15 07:39:00;;;;;;;3.78;2.92;;;10.90;95.90;;;;;;5482349;26;20324;-74
2024/04/15 07:41:27;;;;;;;4.00;3.13;;;11.10;96.10;;;;;;5452375;26;19999;-74
2024/04/15 07:43:54;;;;;;;6.15;4.72;;;11.70;95.50;;;;;;5452328;26;20321;-75
2024/04/15 07:46:21;;;;;;;7.35;4.85;;;12.40;94.00;;;;;;5452170;26;19999;-74
2024/04/15 07:48:50;;;;;;;5.38;4.43;;;12.60;92.80;;;;;;5452137;26;19998;-74
2024/04/15 07:51:17;;;;;;;6.38;4.05;;;12.50;92.70;;;;;;5453571;26;20014;-74
2024/04/15 07:53:44;;;;;;;6.40;4.03;;;12.30;92.60;;;;;;5422063;26;20437;-74
2024/04/15 07:56:12;;;;;;;4.47;3.25;;;12.20;92.70;;;;;;5422151;26;20336;-75
2024/04/15 07:58:40;;;;;;;3.45;3.00;;;12.20;92.60;;;;;;5452627;26;20014;-75
2024/04/15 08:01:07;;;;;;;6.43;3.80;;;12.20;92.90;;;;;;5451813;26;20081;-75
2024/04/15 08:03:34;;;;;;;6.10;4.43;;;12.40;93.10;;;;;;5454133;26;20496;-75
2024/04/15 08:06:02;;;;;;;3.95;3.40;;;12.50;92.20;;;;;;5451718;26;20007;-75
2024/04/15 08:08:29;;;;;;;7.15;4.70;;;12.70;92.20;;;;;;5453238;26;20389;-75
2024/04/15 08:10:57;;;;;;;5.50;4.72;;;12.70;92.10;;;;;;5453408;26;20021;-75
2024/04/15 08:13:24;;;;;;;10.85;4.45;;;12.80;91.80;;;;;;5453481;26;19995;-75
2024/04/15 08:15:51;;;;;;;7.05;4.10;;;12.90;91.60;;;;;;5453525;26;20022;-75
2024/04/15 08:18:18;;;;;;;6.93;3.75;;;12.80;91.40;;;;;;5451375;26;20010;-75
2024/04/15 08:20:54;;;;;;;7.55;5.25;;;12.80;91.70;;;;;;5453586;26;20171;-75
2024/04/15 08:23:21;;;;;;;7.53;4.32;;;12.80;91.50;;;;;;5451508;26;19999;-75
2024/04/15 08:25:53;;;;;;;8.68;5.30;;;12.80;91.80;;;;;;5451537;26;20048;-75
2024/04/15 08:28:20;;;;;;;9.32;5.18;;;12.90;92.00;;;;;;5451414;26;19999;-75
2024/04/15 08:30:47;;;;;;;5.22;4.75;;;13.10;91.30;;;;;;5453330;26;20007;-75
2024/04/15 08:33:14;;;;;;;7.53;5.63;;;13.30;91.60;;;;;;5451233;26;20003;-75
2024/04/15 08:35:41;;;;;;;5.82;3.90;;;13.50;90.90;;;;;;5481901;26;20002;-75
2024/04/15 08:38:09;;;;;;;8.68;5.03;;;13.60;90.70;;;;;;5451538;26;20003;-75
2024/04/15 08:40:36;;;;;;;7.97;5.47;;;13.80;89.70;;;;;;5482267;26;20325;-75
2024/04/15 08:43:04;;;;;;;6.93;4.60;;;14.40;88.90;;;;;;5451202;26;20007;-75
2024/04/15 08:45:31;;;;;;;7.50;4.97;;;14.60;88.40;;;;;;5451559;26;20003;-76
2024/04/15 08:47:58;;;;;;;8.40;5.93;;;14.60;87.70;;;;;;5451492;26;20071;-75
2024/04/15 08:50:26;;;;;;;9.35;5.80;;;14.60;85.60;;;;;;5451035;26;19995;-75
2024/04/15 08:52:55;;;;;;;7.25;5.28;;;14.20;87.00;;;;;;5453038;26;20014;-75
2024/04/15 08:55:25;;;;;;;13.68;6.57;;;13.90;87.60;;;;;;5450988;26;20018;-75
2024/04/15 08:57:54;;;;;;;6.10;4.35;;;13.60;87.50;;;;;;5451164;26;20014;-75
2024/04/15 09:00:22;;;;;;;5.15;4.65;;;13.40;88.20;;;;;;5452638;26;19998;-75
2024/04/15 09:02:52;;;;;;;8.35;5.45;;;13.30;89.50;;;;;;5421600;26;19999;-75
2024/04/15 09:05:19;;;;;;;7.35;5.20;;;13.20;89.00;;;;;;5450731;26;20006;-75
2024/04/15 09:07:46;;;;;;;6.78;4.40;;;13.30;89.30;;;;;;5450981;26;20006;-75
2024/04/15 09:10:15;;;;;;;10.10;6.05;;;13.50;89.70;;;;;;5450824;26;20017;-75
2024/04/15 09:12:43;;;;;;;6.07;5.07;;;13.60;88.70;;;;;;5452662;26;20010;-75
2024/04/15 09:15:11;;;;;;;4.68;3.95;;;13.60;88.00;;;;;;5452360;26;20013;-75
2024/04/15 09:17:39;;;;;;;6.03;4.32;;;13.70;86.80;;;;;;5453003;26;19995;-75
2024/04/15 09:20:10;;;;;;;6.63;4.38;;;13.80;86.50;;;;;;5452034;26;20480;-75
2024/04/15 09:22:37;;;;;;;5.13;3.10;;;14.10;85.80;;;;;;5421506;26;20335;-75
2024/04/15 09:25:05;;;;;;;5.80;3.95;;;14.10;85.20;;;;;;5450750;26;20488;-76
2024/04/15 09:27:33;;;;;;;4.35;3.92;;;14.00;86.80;;;;;;5452205;26;20006;-75
2024/04/15 09:30:03;;;;;;;5.78;5.25;;;14.10;86.20;;;;;;5452629;26;20068;-75
2024/04/15 09:32:33;;;;;;;7.05;6.25;;;14.40;86.00;;;;;;5450559;26;20463;-74
2024/04/15 09:35:02;;;;;;;6.35;5.75;;;14.50;84.80;;;;;;5420811;26;19999;-74
2024/04/15 09:37:31;;;;;;;6.32;5.82;;;14.50;84.90;;;;;;5451964;26;19999;-75
2024/04/15 09:40:01;;;;;;;4.07;3.72;;;14.50;84.50;;;;;;5450481;26;20056;-75
2024/04/15 09:42:29;;;;;;;7.32;5.55;;;14.40;84.20;;;;;;5451757;26;19999;-75
2024/04/15 09:45:01;;;;;;;5.57;4.13;;;14.30;84.10;;;;;;5450676;26;20339;-74
2024/04/15 09:47:29;;;;;;;7.13;4.25;;;14.20;84.20;;;;;;5452016;26;20002;-73
2024/04/15 09:49:56;;;;;;;5.70;3.22;;;14.10;85.30;;;;;;5420790;26;20014;-74
2024/04/15 09:52:31;;;;;;;4.57;3.80;;;13.80;84.70;;;;;;5451587;26;20444;-74
2024/04/15 09:55:07;;;;;;;4.10;3.70;;;13.70;85.50;;;;;;5450862;26;19995;-73
2024/04/15 09:57:39;;;;;;;4.75;2.38;;;13.50;85.00;;;;;;5420736;26;19995;-74
2024/04/15 10:00:14;;;;;;;3.17;2.92;;;13.50;85.20;;;;;;5452361;26;19995;-73
2024/04/15 10:02:44;;;;;;;2.28;1.83;;;13.70;85.20;;;;;;5450275;26;20442;-74
2024/04/15 10:05:22;;;;;;;5.00;3.92;;;13.80;84.10;;;;;;5451620;26;19994;-73
2024/04/15 10:07:51;;;;;;;7.43;3.38;;;14.10;84.30;;;;;;5451864;26;20010;-73
2024/04/15 10:10:20;;;;;;;3.05;2.60;;;14.20;83.30;;;;;;5451749;26;20076;-74
2024/04/15 10:12:50;;;;;;;6.18;4.05;;;14.50;83.20;;;;;;5451412;26;20071;-73
2024/04/15 10:15:19;;;;;;;8.10;3.15;;;14.70;81.40;;;;;;5451424;26;20084;-73
2024/04/15 10:18:02;;;;;;;6.43;3.08;;;14.40;80.50;;;;;;5480009;26;20331;-73
2024/04/15 10:20:48;;;;;;;4.88;2.85;;;14.20;81.20;;;;;;5449644;26;20002;-73
2024/04/15 10:23:17;;;;;;;5.63;2.70;;;13.90;82.40;;;;;;5449391;26;20336;-73
2024/04/15 10:25:45;;;;;;;1.98;1.80;;;13.60;83.60;;;;;;5449684;26;20071;-72
2024/04/15 10:28:15;;;;;;;6.28;2.55;;;13.50;83.20;;;;;;5451415;26;19999;-73
2024/04/15 10:30:45;;;;;;;3.05;2.58;;;13.20;83.90;;;;;;5451244;26;20010;-74
2024/04/15 10:33:15;;;;;;;3.20;2.30;;;13.10;84.90;;;;;;5481795;26;20007;-73
2024/04/15 10:35:44;;;;;;;4.20;2.42;;;13.00;88.80;;;;;;5455363;26;19995;-74
2024/04/15 10:38:11;;;;;;;5.20;2.17;;;12.80;89.80;;;;;;5455028;26;20005;-74
2024/04/15 10:40:44;;;;;;;4.43;3.60;;;12.80;90.10;;;;;;5452999;26;20058;-74
2024/04/15 10:43:23;;;;;;;2.90;2.63;;;13.20;88.30;;;;;;5459178;26;19994;-74
2024/04/15 10:45:50;;;;;;;3.35;2.83;;;13.40;85.70;;;;;;5486845;26;20527;-75
2024/04/15 10:48:17;;;;;;;6.03;2.55;;;14.00;83.60;;;;;;5454520;26;20010;-74
2024/04/15 10:50:45;;;;;;;5.55;3.80;;;14.50;83.10;;;;;;5452059;26;20043;-73
2024/04/15 10:53:12;;;;;;;3.33;2.72;;;14.70;78.80;;;;;;5453660;26;20003;-74
2024/04/15 10:55:40;;;;;;;2.47;2.28;;;14.50;79.80;;;;;;5422363;26;20574;-74
2024/04/15 10:58:11;;;;;;;3.25;2.47;;;14.60;80.40;;;;;;5422563;26;20076;-74
2024/04/15 11:00:43;;;;;;;2.58;2.28;;;14.90;79.50;;;;;;5451762;26;20017;-74
2024/04/15 11:03:11;;;;;;;6.55;3.22;;;15.00;78.60;;;;;;5454147;26;20009;-74
2024/04/15 11:05:38;;;;;;;4.65;3.58;;;14.90;78.10;;;;;;5454113;26;19998;-74
2024/04/15 11:08:09;;;;;;;3.25;3.03;;;14.20;79.10;;;;;;5452860;26;20443;-74
2024/04/15 11:10:37;;;;;;;5.25;2.97;;;13.80;79.60;;;;;;5452549;26;20003;-74
2024/04/15 11:13:10;;;;;;;4.43;4.03;;;13.60;81.20;;;;;;5454536;26;20016;-74
2024/04/15 11:15:39;;;;;;;4.90;3.65;;;13.50;80.90;;;;;;5454592;26;20003;-74
2024/04/15 11:18:14;;;;;;;5.78;4.88;;;13.40;80.60;;;;;;5454884;26;19995;-74
2024/04/15 11:20:41;;;;;;;4.85;4.45;;;13.40;81.50;;;;;;5454378;26;20075;-74
2024/04/15 11:23:09;;;;;;;4.15;3.60;;;13.50;81.30;;;;;;5454758;26;20010;-74
2024/04/15 11:25:36;;;;;;;4.22;3.80;;;13.50;81.60;;;;;;5452735;26;20031;-74
2024/04/15 11:28:04;;;;;;;5.38;4.85;;;13.40;82.10;;;;;;5454651;26;20437;-74
2024/04/15 11:30:32;;;;;;;8.27;4.80;;;13.10;82.60;;;;;;5453993;26;20462;-74
2024/04/15 11:33:03;;;;;;;4.78;4.22;;;12.80;85.00;;;;;;5423810;26;19999;-74
2024/04/15 11:35:31;;;;;;;4.97;3.95;;;12.60;86.60;;;;;;5452336;26;20011;-74
2024/04/15 11:38:01;;;;;;;7.70;6.57;;;12.30;89.00;;;;;;5452312;26;20006;-74
2024/04/15 11:40:30;;;;;;;;;;;12.00;90.30;;;;;;5454488;26;20034;-74
2024/04/15 11:42:58;;;;;;;4.63;3.97;;;11.60;91.80;;;;;;5453919;26;19937;-74
2024/04/15 11:45:25;;;;;;;6.00;5.00;;;11.30;92.30;;;;;;5422789;26;20508;-74
2024/04/15 11:47:53;;;;;;;7.07;6.35;;;11.00;93.50;;;;;;5452226;26;19999;-75
2024/04/15 11:50:20;;;;;;;5.10;4.70;;;10.60;95.80;;;;;;5453890;26;20002;-75
2024/04/15 11:52:48;;;;;;;6.43;5.90;;;10.20;97.10;;;;;;5452232;26;19994;-75
2024/04/15 11:55:20;;;;;;;6.18;5.68;;;9.90;99.50;;;;;;5456738;26;20007;-74
2024/04/15 11:57:48;;;;;;;8.82;6.95;;;9.70;99.90;;;;;;5453436;26;20460;-75
2024/04/15 12:00:16;;;;;;;6.45;5.82;;;9.60;99.90;;;;;;5475720;26;20070;-75
2024/04/15 12:02:44;;;;;;;8.98;8.07;;;9.60;99.90;;;;;;5473782;26;20002;-74
2024/04/15 12:05:12;;;;;;;7.20;6.60;;;9.60;99.90;;;;;;5490060;26;20458;-74
2024/04/15 12:07:41;;;;;;;6.63;5.93;;;9.60;99.90;;;;;;5488028;26;19994;-74
2024/04/15 12:10:10;;;;;;;9.63;7.15;;;9.60;99.90;;;;;;5488277;26;20070;-74
2024/04/15 12:12:38;;;;;;;8.63;6.28;;;9.60;99.90;;;;;;5518539;26;20323;-74
2024/04/15 12:15:06;;;;;;;5.28;4.65;;;9.70;99.90;;;;;;5489768;26;20002;-73
2024/04/15 12:17:34;;;;;;;10.10;5.72;;;9.70;99.90;;;;;;5488035;26;20066;-74
2024/04/15 12:20:03;;;;;;;5.25;4.70;;;9.80;99.90;;;;;;5489226;26;20309;-74
2024/04/15 12:22:30;;;;;;;4.95;4.55;;;9.90;99.90;;;;;;5489885;26;20002;-74
2024/04/15 12:24:58;;;;;;;3.95;3.65;;;10.10;99.90;;;;;;5518474;26;20471;-74
2024/04/15 12:27:31;;;;;;;9.25;8.48;;;10.30;99.90;;;;;;5488023;26;20034;-74
2024/04/15 12:29:59;;;;;;;4.85;4.47;;;10.40;99.90;;;;;;5486062;26;20451;-74
2024/04/15 12:32:27;;;;;;;5.00;3.03;;;10.60;99.90;;;;;;5486441;26;20413;-74
2024/04/15 12:34:54;;;;;;;6.20;4.70;;;10.80;99.90;;;;;;5456024;26;19990;-74
2024/04/15 12:37:21;;;;;;;6.15;5.03;;;11.00;99.90;;;;;;5516946;26;19994;-74
2024/04/15 12:39:48;;;;;;;7.60;3.90;;;11.00;99.90;;;;;;5486154;26;20464;-74
2024/04/15 12:42:16;;;;;;;4.35;3.72;;;11.00;99.90;;;;;;5488166;26;20005;-74
2024/04/15 12:44:43;;;;;;;4.78;4.13;;;11.00;99.90;;;;;;5489047;26;19994;-74
2024/04/15 12:47:10;;;;;;;4.80;4.43;;;10.80;99.90;;;;;;5487654;26;19994;-75
2024/04/15 12:49:37;;;;;;;5.55;5.03;;;10.40;99.90;;;;;;5487399;26;19998;-75
2024/04/15 12:52:06;;;;;;;6.55;4.72;;;9.80;99.90;;;;;;5517862;26;19998;-75
2024/04/15 12:54:33;;;;;;;5.22;4.75;;;9.30;99.90;;;;;;5487003;26;20030;-75
2024/04/15 12:57:00;;;;;;;3.72;3.30;;;9.10;99.90;;;;;;5486800;26;19998;-75